sensor_id;sensor_type;location;lat;lon;timestamp;P1;durP1;ratioP1;P2;durP2;ratioP2
47251;SDS011;32991;51.374;11.586;2024-03-02T00:01:05;37.92;;;17.85;;
47251;SDS011;32991;51.374;11.586;2024-03-02T00:03:33;37.45;;;18.42;;
47251;SDS011;32991;51.374;11.586;2024-03-02T00:06:00;41.00;;;25.50;;
47251;SDS011;32991;51.374;11.586;2024-03-02T00:08:27;32.63;;;17.48;;
47251;SDS011;32991;51.374;11.586;2024-03-02T00:10:57;36.65;;;19.73;;
47251;SDS011;32991;51.374;11.586;2024-03-02T00:13:25;31.52;;;17.10;;
47251;SDS011;32991;51.374;11.586;2024-03-02T00:15:52;36.35;;;21.65;;
47251;SDS011;32991;51.374;11.586;2024-03-02T00:18:27;34.13;;;17.75;;
47251;SDS011;32991;51.374;11.586;2024-03-02T00:20:58;31.70;;;16.90;;
47251;SDS011;32991;51.374;11.586;2024-03-02T00:23:27;31.13;;;15.55;;
47251;SDS011;32991;51.374;11.586;2024-03-02T00:25:54;33.22;;;19.05;;
47251;SDS011;32991;51.374;11.586;2024-03-02T00:28:23;35.05;;;17.80;;
47251;SDS011;32991;51.374;11.586;2024-03-02T00:30:51;30.98;;;17.33;;
47251;SDS011;32991;51.374;11.586;2024-03-02T00:33:21;29.30;;;16.95;;
47251;SDS011;32991;51.374;11.586;2024-03-02T00:35:48;33.25;;;16.98;;
47251;SDS011;32991;51.374;11.586;2024-03-02T00:38:15;36.30;;;19.23;;
47251;SDS011;32991;51.374;11.586;2024-03-02T00:40:43;34.58;;;20.00;;
47251;SDS011;32991;51.374;11.586;2024-03-02T00:43:38;33.63;;;19.33;;
47251;SDS011;32991;51.374;11.586;2024-03-02T00:46:04;29.85;;;16.33;;
47251;SDS011;32991;51.374;11.586;2024-03-02T00:48:31;32.17;;;17.15;;
47251;SDS011;32991;51.374;11.586;2024-03-02T00:50:58;38.53;;;16.63;;
47251;SDS011;32991;51.374;11.586;2024-03-02T00:53:25;30.15;;;16.48;;
47251;SDS011;32991;51.374;11.586;2024-03-02T00:55:52;32.05;;;16.58;;
47251;SDS011;32991;51.374;11.586;2024-03-02T00:58:19;30.13;;;15.45;;
47251;SDS011;32991;51.374;11.586;2024-03-02T01:00:47;30.40;;;16.60;;
47251;SDS011;32991;51.374;11.586;2024-03-02T01:03:14;32.55;;;17.65;;
47251;SDS011;32991;51.374;11.586;2024-03-02T01:05:41;31.75;;;19.73;;
47251;SDS011;32991;51.374;11.586;2024-03-02T01:08:09;31.85;;;18.27;;
47251;SDS011;32991;51.374;11.586;2024-03-02T01:10:36;31.00;;;14.82;;
47251;SDS011;32991;51.374;11.586;2024-03-02T01:13:02;34.47;;;17.02;;
47251;SDS011;32991;51.374;11.586;2024-03-02T01:15:29;28.38;;;15.80;;
47251;SDS011;32991;51.374;11.586;2024-03-02T01:17:56;31.77;;;16.55;;
47251;SDS011;32991;51.374;11.586;2024-03-02T01:20:22;32.63;;;16.98;;
47251;SDS011;32991;51.374;11.586;2024-03-02T01:22:49;30.80;;;15.82;;
47251;SDS011;32991;51.374;11.586;2024-03-02T01:25:15;34.50;;;16.00;;
47251;SDS011;32991;51.374;11.586;2024-03-02T01:27:42;34.28;;;17.40;;
47251;SDS011;32991;51.374;11.586;2024-03-02T01:30:10;29.75;;;15.60;;
47251;SDS011;32991;51.374;11.586;2024-03-02T01:32:37;32.08;;;16.30;;
47251;SDS011;32991;51.374;11.586;2024-03-02T01:35:05;35.20;;;20.42;;
47251;SDS011;32991;51.374;11.586;2024-03-02T01:37:33;30.00;;;16.55;;
47251;SDS011;32991;51.374;11.586;2024-03-02T01:39:59;28.98;;;15.52;;
47251;SDS011;32991;51.374;11.586;2024-03-02T01:42:26;30.92;;;15.77;;
47251;SDS011;32991;51.374;11.586;2024-03-02T01:44:52;27.20;;;16.48;;
47251;SDS011;32991;51.374;11.586;2024-03-02T01:47:19;29.85;;;15.55;;
47251;SDS011;32991;51.374;11.586;2024-03-02T01:49:46;31.17;;;15.85;;
47251;SDS011;32991;51.374;11.586;2024-03-02T01:52:12;26.95;;;17.08;;
47251;SDS011;32991;51.374;11.586;2024-03-02T01:54:39;28.98;;;17.27;;
47251;SDS011;32991;51.374;11.586;2024-03-02T01:57:05;35.65;;;20.45;;
47251;SDS011;32991;51.374;11.586;2024-03-02T01:59:33;29.40;;;17.85;;
47251;SDS011;32991;51.374;11.586;2024-03-02T02:01:59;37.38;;;22.45;;
47251;SDS011;32991;51.374;11.586;2024-03-02T02:04:26;36.13;;;18.35;;
47251;SDS011;32991;51.374;11.586;2024-03-02T02:06:54;34.55;;;18.00;;
47251;SDS011;32991;51.374;11.586;2024-03-02T02:09:20;39.45;;;21.85;;
47251;SDS011;32991;51.374;11.586;2024-03-02T02:11:47;33.90;;;19.65;;
47251;SDS011;32991;51.374;11.586;2024-03-02T02:14:13;36.05;;;19.40;;
47251;SDS011;32991;51.374;11.586;2024-03-02T02:16:40;35.35;;;20.52;;
47251;SDS011;32991;51.374;11.586;2024-03-02T02:19:07;37.55;;;24.20;;
47251;SDS011;32991;51.374;11.586;2024-03-02T02:21:34;29.98;;;16.65;;
47251;SDS011;32991;51.374;11.586;2024-03-02T02:24:00;37.92;;;18.05;;
47251;SDS011;32991;51.374;11.586;2024-03-02T02:26:29;37.70;;;21.55;;
47251;SDS011;32991;51.374;11.586;2024-03-02T02:28:56;36.22;;;17.65;;
47251;SDS011;32991;51.374;11.586;2024-03-02T02:31:23;35.38;;;17.30;;
47251;SDS011;32991;51.374;11.586;2024-03-02T02:33:49;40.97;;;18.92;;
47251;SDS011;32991;51.374;11.586;2024-03-02T02:36:16;34.75;;;17.63;;
47251;SDS011;32991;51.374;11.586;2024-03-02T02:38:44;33.47;;;17.25;;
47251;SDS011;32991;51.374;11.586;2024-03-02T02:41:11;38.50;;;18.48;;
47251;SDS011;32991;51.374;11.586;2024-03-02T02:43:39;27.05;;;15.73;;
47251;SDS011;32991;51.374;11.586;2024-03-02T02:46:06;36.72;;;18.00;;
47251;SDS011;32991;51.374;11.586;2024-03-02T02:48:33;32.17;;;16.63;;
47251;SDS011;32991;51.374;11.586;2024-03-02T02:50:59;30.65;;;15.93;;
47251;SDS011;32991;51.374;11.586;2024-03-02T02:53:26;33.90;;;17.65;;
47251;SDS011;32991;51.374;11.586;2024-03-02T02:55:52;32.08;;;16.77;;
47251;SDS011;32991;51.374;11.586;2024-03-02T02:58:19;30.83;;;17.23;;
47251;SDS011;32991;51.374;11.586;2024-03-02T03:00:45;28.13;;;15.88;;
47251;SDS011;32991;51.374;11.586;2024-03-02T03:03:13;29.45;;;16.17;;
47251;SDS011;32991;51.374;11.586;2024-03-02T03:05:39;32.13;;;16.00;;
47251;SDS011;32991;51.374;11.586;2024-03-02T03:08:06;30.65;;;17.30;;
47251;SDS011;32991;51.374;11.586;2024-03-02T03:10:32;32.78;;;17.42;;
47251;SDS011;32991;51.374;11.586;2024-03-02T03:12:59;31.70;;;17.55;;
47251;SDS011;32991;51.374;11.586;2024-03-02T03:15:26;34.70;;;16.83;;
47251;SDS011;32991;51.374;11.586;2024-03-02T03:17:52;30.02;;;15.80;;
47251;SDS011;32991;51.374;11.586;2024-03-02T03:20:19;31.27;;;15.75;;
47251;SDS011;32991;51.374;11.586;2024-03-02T03:22:47;31.65;;;16.30;;
47251;SDS011;32991;51.374;11.586;2024-03-02T03:25:14;32.38;;;17.80;;
47251;SDS011;32991;51.374;11.586;2024-03-02T03:27:40;29.75;;;16.08;;
47251;SDS011;32991;51.374;11.586;2024-03-02T03:30:08;33.58;;;19.75;;
47251;SDS011;32991;51.374;11.586;2024-03-02T03:32:35;34.65;;;17.35;;
47251;SDS011;32991;51.374;11.586;2024-03-02T03:35:02;31.70;;;17.65;;
47251;SDS011;32991;51.374;11.586;2024-03-02T03:37:29;26.52;;;14.23;;
47251;SDS011;32991;51.374;11.586;2024-03-02T03:40:01;29.67;;;15.43;;
47251;SDS011;32991;51.374;11.586;2024-03-02T03:42:29;29.50;;;17.05;;
47251;SDS011;32991;51.374;11.586;2024-03-02T03:44:55;31.75;;;15.95;;
47251;SDS011;32991;51.374;11.586;2024-03-02T03:47:22;30.13;;;16.77;;
47251;SDS011;32991;51.374;11.586;2024-03-02T03:49:48;24.05;;;15.07;;
47251;SDS011;32991;51.374;11.586;2024-03-02T03:52:15;30.73;;;15.88;;
47251;SDS011;32991;51.374;11.586;2024-03-02T03:54:41;30.08;;;15.77;;
47251;SDS011;32991;51.374;11.586;2024-03-02T03:57:09;31.13;;;15.73;;
47251;SDS011;32991;51.374;11.586;2024-03-02T03:59:35;29.77;;;16.52;;
47251;SDS011;32991;51.374;11.586;2024-03-02T04:02:03;32.63;;;17.90;;
47251;SDS011;32991;51.374;11.586;2024-03-02T04:04:30;36.88;;;18.02;;
47251;SDS011;32991;51.374;11.586;2024-03-02T04:06:57;31.15;;;17.10;;
47251;SDS011;32991;51.374;11.586;2024-03-02T04:09:24;26.08;;;14.98;;
47251;SDS011;32991;51.374;11.586;2024-03-02T04:11:50;33.45;;;16.08;;
47251;SDS011;32991;51.374;11.586;2024-03-02T04:14:17;33.67;;;16.90;;
47251;SDS011;32991;51.374;11.586;2024-03-02T04:16:44;36.22;;;18.42;;
47251;SDS011;32991;51.374;11.586;2024-03-02T04:19:10;33.22;;;17.50;;
47251;SDS011;32991;51.374;11.586;2024-03-02T04:21:37;31.45;;;15.80;;
47251;SDS011;32991;51.374;11.586;2024-03-02T04:24:04;34.15;;;19.08;;
47251;SDS011;32991;51.374;11.586;2024-03-02T04:26:30;29.23;;;16.25;;
47251;SDS011;32991;51.374;11.586;2024-03-02T04:28:57;30.52;;;16.73;;
47251;SDS011;32991;51.374;11.586;2024-03-02T04:31:23;29.70;;;16.63;;
47251;SDS011;32991;51.374;11.586;2024-03-02T04:33:50;39.00;;;17.40;;
47251;SDS011;32991;51.374;11.586;2024-03-02T04:36:17;30.73;;;16.42;;
47251;SDS011;32991;51.374;11.586;2024-03-02T04:38:43;32.28;;;20.83;;
47251;SDS011;32991;51.374;11.586;2024-03-02T04:41:10;28.63;;;14.55;;
47251;SDS011;32991;51.374;11.586;2024-03-02T04:43:36;31.38;;;16.55;;
47251;SDS011;32991;51.374;11.586;2024-03-02T04:46:03;32.17;;;18.15;;
47251;SDS011;32991;51.374;11.586;2024-03-02T04:48:31;34.88;;;18.20;;
47251;SDS011;32991;51.374;11.586;2024-03-02T04:50:57;33.58;;;17.35;;
47251;SDS011;32991;51.374;11.586;2024-03-02T04:53:24;34.00;;;17.75;;
47251;SDS011;32991;51.374;11.586;2024-03-02T04:55:51;36.17;;;18.15;;
47251;SDS011;32991;51.374;11.586;2024-03-02T04:58:43;32.95;;;17.20;;
47251;SDS011;32991;51.374;11.586;2024-03-02T05:01:10;34.42;;;18.50;;
47251;SDS011;32991;51.374;11.586;2024-03-02T05:03:37;33.05;;;17.52;;
47251;SDS011;32991;51.374;11.586;2024-03-02T05:06:04;38.92;;;17.95;;
47251;SDS011;32991;51.374;11.586;2024-03-02T05:08:30;32.38;;;18.52;;
47251;SDS011;32991;51.374;11.586;2024-03-02T05:10:57;37.45;;;18.02;;
47251;SDS011;32991;51.374;11.586;2024-03-02T05:13:43;34.58;;;18.85;;
47251;SDS011;32991;51.374;11.586;2024-03-02T05:16:10;34.55;;;19.00;;
47251;SDS011;32991;51.374;11.586;2024-03-02T05:18:37;34.92;;;19.75;;
47251;SDS011;32991;51.374;11.586;2024-03-02T05:21:03;34.17;;;18.00;;
47251;SDS011;32991;51.374;11.586;2024-03-02T05:23:30;42.15;;;19.73;;
47251;SDS011;32991;51.374;11.586;2024-03-02T05:25:57;37.95;;;19.10;;
47251;SDS011;32991;51.374;11.586;2024-03-02T05:28:23;39.80;;;25.58;;
47251;SDS011;32991;51.374;11.586;2024-03-02T05:30:50;33.05;;;17.15;;
47251;SDS011;32991;51.374;11.586;2024-03-02T05:33:16;45.63;;;18.65;;
47251;SDS011;32991;51.374;11.586;2024-03-02T05:35:43;38.90;;;23.52;;
47251;SDS011;32991;51.374;11.586;2024-03-02T05:38:10;43.17;;;24.17;;
47251;SDS011;32991;51.374;11.586;2024-03-02T05:40:37;43.00;;;22.95;;
47251;SDS011;32991;51.374;11.586;2024-03-02T05:43:03;41.63;;;19.30;;
47251;SDS011;32991;51.374;11.586;2024-03-02T05:45:30;41.60;;;21.60;;
47251;SDS011;32991;51.374;11.586;2024-03-02T05:47:57;43.88;;;21.00;;
47251;SDS011;32991;51.374;11.586;2024-03-02T05:50:24;44.85;;;22.00;;
47251;SDS011;32991;51.374;11.586;2024-03-02T05:52:50;38.42;;;20.63;;
47251;SDS011;32991;51.374;11.586;2024-03-02T05:55:17;45.42;;;20.85;;
47251;SDS011;32991;51.374;11.586;2024-03-02T05:57:44;47.30;;;21.13;;
47251;SDS011;32991;51.374;11.586;2024-03-02T06:00:10;47.05;;;26.13;;
47251;SDS011;32991;51.374;11.586;2024-03-02T06:02:40;42.13;;;18.73;;
47251;SDS011;32991;51.374;11.586;2024-03-02T06:05:07;41.58;;;21.25;;
47251;SDS011;32991;51.374;11.586;2024-03-02T06:07:33;44.55;;;20.70;;
47251;SDS011;32991;51.374;11.586;2024-03-02T06:10:00;45.25;;;20.75;;
47251;SDS011;32991;51.374;11.586;2024-03-02T06:12:27;44.22;;;20.88;;
47251;SDS011;32991;51.374;11.586;2024-03-02T06:14:53;48.20;;;21.40;;
47251;SDS011;32991;51.374;11.586;2024-03-02T06:17:20;56.83;;;23.77;;
47251;SDS011;32991;51.374;11.586;2024-03-02T06:19:46;42.65;;;20.63;;
47251;SDS011;32991;51.374;11.586;2024-03-02T06:22:14;50.03;;;25.02;;
47251;SDS011;32991;51.374;11.586;2024-03-02T06:24:40;49.33;;;25.40;;
47251;SDS011;32991;51.374;11.586;2024-03-02T06:27:07;46.58;;;23.33;;
47251;SDS011;32991;51.374;11.586;2024-03-02T06:29:34;46.90;;;22.90;;
47251;SDS011;32991;51.374;11.586;2024-03-02T06:32:00;45.92;;;21.80;;
47251;SDS011;32991;51.374;11.586;2024-03-02T06:34:27;47.70;;;23.38;;
47251;SDS011;32991;51.374;11.586;2024-03-02T06:36:53;50.35;;;25.23;;
47251;SDS011;32991;51.374;11.586;2024-03-02T06:39:20;59.47;;;34.10;;
47251;SDS011;32991;51.374;11.586;2024-03-02T06:41:46;45.22;;;22.42;;
47251;SDS011;32991;51.374;11.586;2024-03-02T06:44:13;47.28;;;22.73;;
47251;SDS011;32991;51.374;11.586;2024-03-02T06:46:40;49.95;;;27.42;;
47251;SDS011;32991;51.374;11.586;2024-03-02T06:49:07;47.83;;;26.13;;
47251;SDS011;32991;51.374;11.586;2024-03-02T06:51:33;47.28;;;23.88;;
47251;SDS011;32991;51.374;11.586;2024-03-02T06:54:00;44.80;;;23.75;;
47251;SDS011;32991;51.374;11.586;2024-03-02T06:56:27;51.17;;;24.00;;
47251;SDS011;32991;51.374;11.586;2024-03-02T06:58:53;48.10;;;22.85;;
47251;SDS011;32991;51.374;11.586;2024-03-02T07:01:20;50.35;;;26.92;;
47251;SDS011;32991;51.374;11.586;2024-03-02T07:03:51;53.60;;;32.67;;
47251;SDS011;32991;51.374;11.586;2024-03-02T07:06:17;51.35;;;28.92;;
47251;SDS011;32991;51.374;11.586;2024-03-02T07:08:44;54.67;;;28.63;;
47251;SDS011;32991;51.374;11.586;2024-03-02T07:11:10;53.13;;;29.90;;
47251;SDS011;32991;51.374;11.586;2024-03-02T07:13:37;45.33;;;22.13;;
47251;SDS011;32991;51.374;11.586;2024-03-02T07:16:22;48.85;;;23.48;;
47251;SDS011;32991;51.374;11.586;2024-03-02T07:18:56;50.47;;;22.50;;
47251;SDS011;32991;51.374;11.586;2024-03-02T07:21:23;49.60;;;23.98;;
47251;SDS011;32991;51.374;11.586;2024-03-02T07:23:50;51.08;;;25.58;;
47251;SDS011;32991;51.374;11.586;2024-03-02T07:26:17;55.03;;;26.02;;
47251;SDS011;32991;51.374;11.586;2024-03-02T07:28:47;56.42;;;33.20;;
47251;SDS011;32991;51.374;11.586;2024-03-02T07:31:15;52.72;;;30.08;;
47251;SDS011;32991;51.374;11.586;2024-03-02T07:33:43;49.67;;;29.48;;
47251;SDS011;32991;51.374;11.586;2024-03-02T07:36:10;54.58;;;32.85;;
47251;SDS011;32991;51.374;11.586;2024-03-02T07:38:37;41.60;;;22.77;;
47251;SDS011;32991;51.374;11.586;2024-03-02T07:41:04;50.40;;;31.85;;
47251;SDS011;32991;51.374;11.586;2024-03-02T07:43:31;39.13;;;21.33;;
47251;SDS011;32991;51.374;11.586;2024-03-02T07:45:59;44.83;;;31.92;;
47251;SDS011;32991;51.374;11.586;2024-03-02T07:48:26;45.38;;;32.08;;
47251;SDS011;32991;51.374;11.586;2024-03-02T07:50:53;45.90;;;33.22;;
47251;SDS011;32991;51.374;11.586;2024-03-02T07:53:20;44.95;;;32.50;;
47251;SDS011;32991;51.374;11.586;2024-03-02T07:55:46;45.90;;;32.30;;
47251;SDS011;32991;51.374;11.586;2024-03-02T07:58:13;41.13;;;29.52;;
47251;SDS011;32991;51.374;11.586;2024-03-02T08:00:39;40.78;;;28.30;;
47251;SDS011;32991;51.374;11.586;2024-03-02T08:03:06;42.65;;;28.38;;
47251;SDS011;32991;51.374;11.586;2024-03-02T08:05:33;38.90;;;27.23;;
47251;SDS011;32991;51.374;11.586;2024-03-02T08:08:00;36.50;;;27.08;;
47251;SDS011;32991;51.374;11.586;2024-03-02T08:10:26;36.15;;;26.50;;
47251;SDS011;32991;51.374;11.586;2024-03-02T08:12:53;34.78;;;25.75;;
47251;SDS011;32991;51.374;11.586;2024-03-02T08:15:20;37.70;;;27.10;;
47251;SDS011;32991;51.374;11.586;2024-03-02T08:17:46;37.78;;;27.58;;
47251;SDS011;32991;51.374;11.586;2024-03-02T08:20:15;38.83;;;27.02;;
47251;SDS011;32991;51.374;11.586;2024-03-02T08:22:42;37.50;;;27.70;;
47251;SDS011;32991;51.374;11.586;2024-03-02T08:25:08;35.95;;;26.92;;
47251;SDS011;32991;51.374;11.586;2024-03-02T08:27:35;41.10;;;27.95;;
47251;SDS011;32991;51.374;11.586;2024-03-02T08:30:02;38.30;;;28.30;;
47251;SDS011;32991;51.374;11.586;2024-03-02T08:32:33;43.78;;;29.98;;
47251;SDS011;32991;51.374;11.586;2024-03-02T08:35:00;40.85;;;29.60;;
47251;SDS011;32991;51.374;11.586;2024-03-02T08:37:26;42.75;;;29.38;;
47251;SDS011;32991;51.374;11.586;2024-03-02T08:39:53;43.20;;;28.63;;
47251;SDS011;32991;51.374;11.586;2024-03-02T08:42:20;44.80;;;29.95;;
47251;SDS011;32991;51.374;11.586;2024-03-02T08:44:46;41.13;;;29.65;;
47251;SDS011;32991;51.374;11.586;2024-03-02T08:47:13;42.45;;;31.17;;
47251;SDS011;32991;51.374;11.586;2024-03-02T08:49:40;41.38;;;30.10;;
47251;SDS011;32991;51.374;11.586;2024-03-02T08:52:06;40.38;;;28.92;;
47251;SDS011;32991;51.374;11.586;2024-03-02T08:54:33;39.55;;;28.70;;
47251;SDS011;32991;51.374;11.586;2024-03-02T08:57:00;41.90;;;30.10;;
47251;SDS011;32991;51.374;11.586;2024-03-02T08:59:27;42.60;;;29.13;;
47251;SDS011;32991;51.374;11.586;2024-03-02T09:01:56;38.95;;;29.17;;
47251;SDS011;32991;51.374;11.586;2024-03-02T09:04:23;37.50;;;27.90;;
47251;SDS011;32991;51.374;11.586;2024-03-02T09:06:53;39.25;;;27.85;;
47251;SDS011;32991;51.374;11.586;2024-03-02T09:09:20;40.53;;;28.27;;
47251;SDS011;32991;51.374;11.586;2024-03-02T09:11:46;39.67;;;28.17;;
47251;SDS011;32991;51.374;11.586;2024-03-02T09:14:13;38.60;;;27.58;;
47251;SDS011;32991;51.374;11.586;2024-03-02T09:16:41;37.42;;;27.30;;
47251;SDS011;32991;51.374;11.586;2024-03-02T09:19:08;40.85;;;28.02;;
47251;SDS011;32991;51.374;11.586;2024-03-02T09:21:36;37.20;;;27.33;;
47251;SDS011;32991;51.374;11.586;2024-03-02T09:24:03;38.15;;;28.33;;
47251;SDS011;32991;51.374;11.586;2024-03-02T09:26:30;38.78;;;27.38;;
47251;SDS011;32991;51.374;11.586;2024-03-02T09:28:57;37.60;;;26.63;;
47251;SDS011;32991;51.374;11.586;2024-03-02T09:31:23;38.00;;;27.92;;
47251;SDS011;32991;51.374;11.586;2024-03-02T09:33:50;35.78;;;25.80;;
47251;SDS011;32991;51.374;11.586;2024-03-02T09:36:17;35.25;;;26.23;;
47251;SDS011;32991;51.374;11.586;2024-03-02T09:38:45;33.38;;;25.92;;
47251;SDS011;32991;51.374;11.586;2024-03-02T09:41:11;33.05;;;25.73;;
47251;SDS011;32991;51.374;11.586;2024-03-02T09:43:38;32.55;;;25.23;;
47251;SDS011;32991;51.374;11.586;2024-03-02T09:46:05;29.25;;;22.10;;
47251;SDS011;32991;51.374;11.586;2024-03-02T09:48:32;31.17;;;21.63;;
47251;SDS011;32991;51.374;11.586;2024-03-02T09:50:59;27.95;;;21.15;;
47251;SDS011;32991;51.374;11.586;2024-03-02T09:53:29;26.77;;;19.88;;
47251;SDS011;32991;51.374;11.586;2024-03-02T09:55:58;28.02;;;21.20;;
47251;SDS011;32991;51.374;11.586;2024-03-02T09:58:27;26.73;;;20.67;;
47251;SDS011;32991;51.374;11.586;2024-03-02T10:00:53;24.67;;;20.42;;
47251;SDS011;32991;51.374;11.586;2024-03-02T10:03:20;28.50;;;20.10;;
47251;SDS011;32991;51.374;11.586;2024-03-02T10:05:49;25.40;;;19.73;;
47251;SDS011;32991;51.374;11.586;2024-03-02T10:08:15;25.63;;;20.55;;
47251;SDS011;32991;51.374;11.586;2024-03-02T10:10:42;25.92;;;19.25;;
47251;SDS011;32991;51.374;11.586;2024-03-02T10:13:10;27.67;;;21.48;;
47251;SDS011;32991;51.374;11.586;2024-03-02T10:15:38;27.45;;;20.77;;
47251;SDS011;32991;51.374;11.586;2024-03-02T10:18:09;27.48;;;21.40;;
47251;SDS011;32991;51.374;11.586;2024-03-02T10:20:40;27.05;;;20.52;;
47251;SDS011;32991;51.374;11.586;2024-03-02T10:23:16;25.80;;;20.35;;
47251;SDS011;32991;51.374;11.586;2024-03-02T10:25:43;25.88;;;20.35;;
47251;SDS011;32991;51.374;11.586;2024-03-02T10:28:23;26.30;;;20.30;;
47251;SDS011;32991;51.374;11.586;2024-03-02T10:30:49;25.05;;;19.38;;
47251;SDS011;32991;51.374;11.586;2024-03-02T10:33:18;24.30;;;19.48;;
47251;SDS011;32991;51.374;11.586;2024-03-02T10:35:44;25.60;;;19.67;;
47251;SDS011;32991;51.374;11.586;2024-03-02T10:38:11;24.45;;;19.23;;
47251;SDS011;32991;51.374;11.586;2024-03-02T10:40:38;26.33;;;19.65;;
47251;SDS011;32991;51.374;11.586;2024-03-02T10:43:04;20.55;;;17.25;;
47251;SDS011;32991;51.374;11.586;2024-03-02T10:45:32;22.35;;;18.10;;
47251;SDS011;32991;51.374;11.586;2024-03-02T10:47:59;21.63;;;17.20;;
47251;SDS011;32991;51.374;11.586;2024-03-02T10:50:28;21.73;;;16.92;;
47251;SDS011;32991;51.374;11.586;2024-03-02T10:52:55;19.88;;;16.60;;
47251;SDS011;32991;51.374;11.586;2024-03-02T10:55:21;20.77;;;16.38;;
47251;SDS011;32991;51.374;11.586;2024-03-02T10:57:52;20.42;;;15.95;;
47251;SDS011;32991;51.374;11.586;2024-03-02T11:00:20;20.77;;;16.73;;
47251;SDS011;32991;51.374;11.586;2024-03-02T11:02:56;20.50;;;16.52;;
47251;SDS011;32991;51.374;11.586;2024-03-02T11:05:26;20.85;;;16.85;;
47251;SDS011;32991;51.374;11.586;2024-03-02T11:07:57;18.30;;;15.80;;
47251;SDS011;32991;51.374;11.586;2024-03-02T11:10:45;19.70;;;16.00;;
47251;SDS011;32991;51.374;11.586;2024-03-02T11:13:20;20.75;;;16.88;;
47251;SDS011;32991;51.374;11.586;2024-03-02T11:15:51;19.27;;;16.00;;
47251;SDS011;32991;51.374;11.586;2024-03-02T11:18:21;18.50;;;16.05;;
47251;SDS011;32991;51.374;11.586;2024-03-02T11:20:48;19.20;;;16.10;;
47251;SDS011;32991;51.374;11.586;2024-03-02T11:23:15;18.83;;;15.98;;
47251;SDS011;32991;51.374;11.586;2024-03-02T11:25:41;22.02;;;16.73;;
47251;SDS011;32991;51.374;11.586;2024-03-02T11:28:08;19.58;;;16.10;;
47251;SDS011;32991;51.374;11.586;2024-03-02T11:33:07;19.13;;;16.52;;
47251;SDS011;32991;51.374;11.586;2024-03-02T11:35:35;22.25;;;16.63;;
47251;SDS011;32991;51.374;11.586;2024-03-02T11:38:03;21.98;;;17.13;;
47251;SDS011;32991;51.374;11.586;2024-03-02T11:40:31;20.02;;;16.67;;
47251;SDS011;32991;51.374;11.586;2024-03-02T11:43:01;19.52;;;15.65;;
47251;SDS011;32991;51.374;11.586;2024-03-02T11:45:28;20.70;;;15.90;;
47251;SDS011;32991;51.374;11.586;2024-03-02T11:47:55;17.40;;;14.52;;
47251;SDS011;32991;51.374;11.586;2024-03-02T11:50:31;18.17;;;14.55;;
47251;SDS011;32991;51.374;11.586;2024-03-02T11:52:59;16.73;;;14.20;;
47251;SDS011;32991;51.374;11.586;2024-03-02T11:55:26;18.73;;;15.30;;
47251;SDS011;32991;51.374;11.586;2024-03-02T11:57:53;17.17;;;14.32;;
47251;SDS011;32991;51.374;11.586;2024-03-02T12:00:20;19.13;;;14.20;;
47251;SDS011;32991;51.374;11.586;2024-03-02T12:03:00;16.50;;;13.73;;
47251;SDS011;32991;51.374;11.586;2024-03-02T12:05:30;18.23;;;14.18;;
47251;SDS011;32991;51.374;11.586;2024-03-02T12:07:57;15.55;;;13.05;;
47251;SDS011;32991;51.374;11.586;2024-03-02T12:10:25;13.70;;;12.18;;
47251;SDS011;32991;51.374;11.586;2024-03-02T12:12:56;14.40;;;12.75;;
47251;SDS011;32991;51.374;11.586;2024-03-02T12:15:27;15.40;;;13.73;;
47251;SDS011;32991;51.374;11.586;2024-03-02T12:17:55;14.88;;;12.10;;
47251;SDS011;32991;51.374;11.586;2024-03-02T12:20:23;15.70;;;12.85;;
47251;SDS011;32991;51.374;11.586;2024-03-02T12:22:51;13.93;;;11.98;;
47251;SDS011;32991;51.374;11.586;2024-03-02T12:25:21;16.38;;;12.88;;
47251;SDS011;32991;51.374;11.586;2024-03-02T12:27:49;15.10;;;12.38;;
47251;SDS011;32991;51.374;11.586;2024-03-02T12:30:17;13.80;;;11.82;;
47251;SDS011;32991;51.374;11.586;2024-03-02T12:32:44;13.90;;;11.68;;
47251;SDS011;32991;51.374;11.586;2024-03-02T12:35:11;12.20;;;10.70;;
47251;SDS011;32991;51.374;11.586;2024-03-02T12:37:50;13.85;;;12.05;;
47251;SDS011;32991;51.374;11.586;2024-03-02T12:40:18;14.63;;;11.82;;
47251;SDS011;32991;51.374;11.586;2024-03-02T12:42:46;13.02;;;11.32;;
47251;SDS011;32991;51.374;11.586;2024-03-02T12:45:13;13.45;;;10.52;;
47251;SDS011;32991;51.374;11.586;2024-03-02T12:47:40;13.90;;;10.57;;
47251;SDS011;32991;51.374;11.586;2024-03-02T12:50:08;11.32;;;9.75;;
47251;SDS011;32991;51.374;11.586;2024-03-02T12:52:35;12.40;;;9.85;;
47251;SDS011;32991;51.374;11.586;2024-03-02T12:55:04;12.10;;;10.80;;
47251;SDS011;32991;51.374;11.586;2024-03-02T12:57:32;11.75;;;9.95;;
47251;SDS011;32991;51.374;11.586;2024-03-02T13:00:00;11.45;;;10.25;;
47251;SDS011;32991;51.374;11.586;2024-03-02T13:02:36;11.60;;;9.35;;
47251;SDS011;32991;51.374;11.586;2024-03-02T13:05:03;10.70;;;9.52;;
47251;SDS011;32991;51.374;11.586;2024-03-02T13:07:30;11.77;;;9.35;;
47251;SDS011;32991;51.374;11.586;2024-03-02T13:09:56;11.35;;;8.75;;
47251;SDS011;32991;51.374;11.586;2024-03-02T13:12:24;9.95;;;8.30;;
47251;SDS011;32991;51.374;11.586;2024-03-02T13:14:54;10.05;;;8.23;;
47251;SDS011;32991;51.374;11.586;2024-03-02T13:17:20;10.05;;;8.52;;
47251;SDS011;32991;51.374;11.586;2024-03-02T13:19:53;7.97;;;7.18;;
47251;SDS011;32991;51.374;11.586;2024-03-02T13:22:21;9.25;;;7.75;;
47251;SDS011;32991;51.374;11.586;2024-03-02T13:24:48;10.93;;;8.80;;
47251;SDS011;32991;51.374;11.586;2024-03-02T13:27:15;12.15;;;8.95;;
47251;SDS011;32991;51.374;11.586;2024-03-02T13:29:42;10.38;;;9.27;;
47251;SDS011;32991;51.374;11.586;2024-03-02T13:32:09;9.30;;;8.38;;
47251;SDS011;32991;51.374;11.586;2024-03-02T13:34:36;10.50;;;8.70;;
47251;SDS011;32991;51.374;11.586;2024-03-02T13:37:03;9.77;;;8.77;;
47251;SDS011;32991;51.374;11.586;2024-03-02T13:39:31;10.85;;;8.40;;
47251;SDS011;32991;51.374;11.586;2024-03-02T13:41:59;9.68;;;8.68;;
47251;SDS011;32991;51.374;11.586;2024-03-02T13:44:32;10.15;;;8.45;;
47251;SDS011;32991;51.374;11.586;2024-03-02T13:46:59;11.23;;;8.43;;
47251;SDS011;32991;51.374;11.586;2024-03-02T13:49:26;9.82;;;8.82;;
47251;SDS011;32991;51.374;11.586;2024-03-02T13:52:04;10.10;;;7.78;;
47251;SDS011;32991;51.374;11.586;2024-03-02T13:54:37;9.10;;;7.82;;
47251;SDS011;32991;51.374;11.586;2024-03-02T13:57:06;8.52;;;7.72;;
47251;SDS011;32991;51.374;11.586;2024-03-02T13:59:33;8.52;;;7.63;;
47251;SDS011;32991;51.374;11.586;2024-03-02T14:02:04;7.88;;;7.07;;
47251;SDS011;32991;51.374;11.586;2024-03-02T14:04:32;8.38;;;6.43;;
47251;SDS011;32991;51.374;11.586;2024-03-02T14:07:00;8.10;;;7.30;;
47251;SDS011;32991;51.374;11.586;2024-03-02T14:09:27;7.85;;;7.05;;
47251;SDS011;32991;51.374;11.586;2024-03-02T14:11:54;7.55;;;6.78;;
47251;SDS011;32991;51.374;11.586;2024-03-02T14:14:21;8.93;;;7.25;;
47251;SDS011;32991;51.374;11.586;2024-03-02T14:16:48;8.63;;;7.43;;